createdAt,value
2022-08-30T00:00:32.168Z,16.86
2022-08-30T00:01:32.149Z,16.92
2022-08-30T00:02:32.232Z,16.92
2022-08-30T00:03:32.284Z,16.82
2022-08-30T00:04:32.103Z,16.91
2022-08-30T00:05:32.081Z,16.86
2022-08-30T00:06:32.066Z,16.87
2022-08-30T00:07:32.048Z,16.80
2022-08-30T00:08:32.028Z,16.79
2022-08-30T00:09:32.007Z,16.80
2022-08-30T00:10:31.991Z,16.76
2022-08-30T00:11:31.974Z,16.86
2022-08-30T00:12:31.956Z,16.89
2022-08-30T00:13:31.937Z,16.76
2022-08-30T00:14:31.923Z,16.79
2022-08-30T00:15:31.973Z,16.80
2022-08-30T00:16:31.886Z,16.77
2022-08-30T00:17:31.865Z,16.76
2022-08-30T00:18:31.851Z,16.79
2022-08-30T00:19:31.831Z,16.80
2022-08-30T00:20:31.815Z,16.77
2022-08-30T00:21:31.794Z,16.65
2022-08-30T00:22:31.782Z,16.66
2022-08-30T00:23:31.760Z,16.77
2022-08-30T00:24:31.743Z,16.76
2022-08-30T00:25:31.728Z,16.76
2022-08-30T00:26:31.711Z,16.82
2022-08-30T00:27:31.691Z,16.76
2022-08-30T00:28:31.675Z,16.79
2022-08-30T00:29:31.657Z,16.79
2022-08-30T00:30:31.639Z,16.80
2022-08-30T00:31:31.687Z,16.77
2022-08-30T00:32:31.605Z,16.72
2022-08-30T00:33:31.589Z,16.68
2022-08-30T00:34:31.571Z,16.79
2022-08-30T00:35:31.548Z,16.73
2022-08-30T00:36:31.554Z,16.69
2022-08-30T00:37:31.511Z,16.72
2022-08-30T00:38:31.497Z,16.77
2022-08-30T00:39:31.480Z,16.82
2022-08-30T00:40:31.503Z,16.79
2022-08-30T00:41:31.441Z,16.73
2022-08-30T00:42:31.428Z,16.65
2022-08-30T00:43:31.407Z,16.66
2022-08-30T00:44:31.390Z,16.68
2022-08-30T00:45:31.373Z,16.58
2022-08-30T00:46:31.438Z,16.66
2022-08-30T00:47:31.338Z,16.64
2022-08-30T00:48:31.320Z,16.49
2022-08-30T00:49:31.300Z,16.49
2022-08-30T00:50:31.293Z,16.59
2022-08-30T00:51:31.304Z,16.49
2022-08-30T00:52:31.250Z,16.54
2022-08-30T00:53:31.229Z,16.50
2022-08-30T00:54:31.213Z,16.49
2022-08-30T00:55:31.194Z,16.50
2022-08-30T00:56:31.178Z,16.44
2022-08-30T00:57:31.158Z,16.41
2022-08-30T00:58:31.141Z,16.36
2022-08-30T00:59:31.123Z,16.31
2022-08-30T01:00:31.106Z,16.32
2022-08-30T01:01:31.910Z,16.28
2022-08-30T01:02:31.115Z,16.32
2022-08-30T01:03:31.054Z,16.25
2022-08-30T01:04:31.034Z,16.26
2022-08-30T01:05:31.015Z,16.22
2022-08-30T01:06:32.619Z,16.21
2022-08-30T01:07:30.980Z,16.16
2022-08-30T01:08:30.962Z,16.18
2022-08-30T01:09:30.943Z,16.26
2022-08-30T01:10:30.929Z,16.18
2022-08-30T01:11:30.911Z,16.26
2022-08-30T01:12:30.890Z,16.21
2022-08-30T01:13:30.883Z,16.21
2022-08-30T01:14:30.857Z,16.08
2022-08-30T01:15:30.864Z,16.16
2022-08-30T01:16:30.820Z,16.17
2022-08-30T01:17:30.800Z,16.21
2022-08-30T01:18:30.786Z,16.16
2022-08-30T01:19:30.764Z,16.24
2022-08-30T01:20:30.749Z,16.22
2022-08-30T01:21:31.263Z,16.28
2022-08-30T01:22:30.712Z,16.25
2022-08-30T01:23:30.693Z,16.26
2022-08-30T01:24:30.681Z,16.29
2022-08-30T01:25:30.658Z,16.21
2022-08-30T01:26:30.652Z,16.36
2022-08-30T01:27:30.623Z,16.24
2022-08-30T01:28:30.608Z,16.34
2022-08-30T01:29:30.587Z,16.29
2022-08-30T01:30:30.624Z,16.28
2022-08-30T01:31:30.551Z,16.22
2022-08-30T01:32:30.565Z,16.22
2022-08-30T01:33:30.515Z,16.08
2022-08-30T01:34:30.498Z,16.12
2022-08-30T01:35:30.480Z,16.10
2022-08-30T01:36:30.495Z,16.16
2022-08-30T01:37:30.441Z,16.06
2022-08-30T01:38:30.426Z,16.05
2022-08-30T01:39:30.410Z,16.10
2022-08-30T01:40:30.422Z,16.06
2022-08-30T01:41:30.369Z,16.02
2022-08-30T01:42:30.354Z,16.03
2022-08-30T01:43:30.332Z,16.00
2022-08-30T01:44:30.315Z,16.02
2022-08-30T01:45:30.295Z,16.13
2022-08-30T01:46:30.339Z,16.03
2022-08-30T01:47:30.262Z,16.03
2022-08-30T01:48:31.213Z,16.08
2022-08-30T01:49:30.226Z,16.03
2022-08-30T01:50:30.213Z,16.09
2022-08-30T01:51:30.190Z,16.10
2022-08-30T01:52:30.175Z,16.10
2022-08-30T01:53:30.151Z,16.13
2022-08-30T01:54:33.380Z,16.12
2022-08-30T01:55:30.120Z,16.09
2022-08-30T01:56:30.102Z,16.10
2022-08-30T01:57:30.081Z,16.13
2022-08-30T01:58:30.064Z,16.02
2022-08-30T01:59:30.045Z,16.00
2022-08-30T02:00:30.025Z,16.03
2022-08-30T02:01:30.047Z,15.94
2022-08-30T02:02:29.991Z,15.92
2022-08-30T02:03:30.014Z,15.94
2022-08-30T02:04:29.954Z,15.83
2022-08-30T02:05:29.938Z,15.85
2022-08-30T02:06:29.921Z,15.84
2022-08-30T02:07:29.900Z,15.88
2022-08-30T02:08:29.883Z,15.83
2022-08-30T02:09:29.861Z,15.81
2022-08-30T02:10:29.846Z,15.80
2022-08-30T02:11:29.828Z,15.85
2022-08-30T02:12:29.808Z,15.76
2022-08-30T02:13:29.789Z,15.78
2022-08-30T02:14:29.774Z,15.75
2022-08-30T02:15:29.753Z,15.76
2022-08-30T02:16:29.804Z,15.78
2022-08-30T02:17:29.720Z,15.75
2022-08-30T02:18:29.701Z,15.81
2022-08-30T02:19:29.681Z,15.72
2022-08-30T02:20:29.665Z,15.75
2022-08-30T02:21:29.642Z,15.78
2022-08-30T02:22:29.627Z,15.69
2022-08-30T02:23:29.615Z,15.69
2022-08-30T02:24:29.591Z,15.72
2022-08-30T02:25:29.571Z,15.75
2022-08-30T02:26:29.554Z,15.72
2022-08-30T02:27:29.536Z,15.69
2022-08-30T02:28:29.520Z,15.73
2022-08-30T02:29:29.499Z,15.75
2022-08-30T02:30:29.541Z,15.73
2022-08-30T02:31:29.467Z,15.69
2022-08-30T02:32:29.447Z,15.66
2022-08-30T02:33:29.429Z,15.70
2022-08-30T02:34:29.410Z,15.66
2022-08-30T02:35:29.390Z,15.72
2022-08-30T02:36:29.373Z,15.75
2022-08-30T02:37:29.353Z,15.70
2022-08-30T02:38:29.335Z,15.75
2022-08-30T02:39:29.317Z,15.70
2022-08-30T02:40:29.374Z,15.67
2022-08-30T02:41:29.278Z,15.70
2022-08-30T02:42:29.263Z,15.70
2022-08-30T02:43:29.242Z,15.66
2022-08-30T02:44:29.226Z,15.76
2022-08-30T02:45:29.210Z,15.87
2022-08-30T02:46:29.252Z,15.72
2022-08-30T02:47:29.169Z,15.83
2022-08-30T02:48:29.153Z,15.85
2022-08-30T02:49:33.580Z,15.81
2022-08-30T02:50:29.119Z,15.81
2022-08-30T02:51:29.098Z,15.73
2022-08-30T02:52:29.079Z,15.72
2022-08-30T02:53:29.060Z,15.78
2022-08-30T02:54:29.043Z,15.73
2022-08-30T02:55:29.023Z,15.73
2022-08-30T02:56:29.010Z,15.63
2022-08-30T02:57:28.992Z,15.69
2022-08-30T02:58:28.969Z,15.69
2022-08-30T02:59:28.965Z,15.67
2022-08-30T03:00:28.933Z,15.65
2022-08-30T03:01:29.492Z,15.63
2022-08-30T03:02:28.896Z,15.63
2022-08-30T03:03:28.960Z,15.67
2022-08-30T03:04:28.858Z,15.57
2022-08-30T03:05:28.840Z,15.55
2022-08-30T03:06:28.824Z,15.52
2022-08-30T03:07:28.803Z,15.43
2022-08-30T03:08:28.787Z,15.45
2022-08-30T03:09:28.765Z,15.45
2022-08-30T03:10:28.752Z,15.48
2022-08-30T03:11:28.733Z,15.45
2022-08-30T03:12:28.713Z,15.43
2022-08-30T03:13:28.694Z,15.45
2022-08-30T03:14:28.678Z,15.52
2022-08-30T03:15:28.659Z,15.52
2022-08-30T03:16:28.691Z,15.47
2022-08-30T03:17:28.620Z,15.44
2022-08-30T03:18:28.602Z,15.43
2022-08-30T03:19:28.584Z,15.37
2022-08-30T03:20:28.566Z,15.37
2022-08-30T03:21:28.550Z,15.36
2022-08-30T03:22:28.528Z,15.45
2022-08-30T03:23:28.510Z,15.43
2022-08-30T03:24:28.493Z,15.37
2022-08-30T03:25:28.472Z,15.44
2022-08-30T03:26:28.455Z,15.43
2022-08-30T03:27:28.437Z,15.44
2022-08-30T03:28:28.418Z,15.39
2022-08-30T03:29:28.399Z,15.43
2022-08-30T03:30:28.386Z,15.43
2022-08-30T03:31:28.412Z,15.36
2022-08-30T03:32:28.346Z,15.36
2022-08-30T03:33:28.330Z,15.36
2022-08-30T03:34:28.304Z,15.27
2022-08-30T03:35:28.290Z,15.27
2022-08-30T03:36:28.269Z,15.22
2022-08-30T03:37:28.253Z,15.22
2022-08-30T03:38:28.234Z,15.17
2022-08-30T03:39:28.215Z,15.14
2022-08-30T03:40:28.257Z,15.14
2022-08-30T03:41:28.177Z,15.11
2022-08-30T03:42:28.157Z,15.18
2022-08-30T03:43:28.141Z,15.17
2022-08-30T03:44:28.119Z,15.22
2022-08-30T03:45:28.176Z,15.15
2022-08-30T03:46:28.087Z,15.15
2022-08-30T03:47:28.067Z,15.18
2022-08-30T03:48:28.047Z,15.18
2022-08-30T03:49:28.032Z,15.18
2022-08-30T03:50:28.014Z,15.15
2022-08-30T03:51:27.994Z,15.23
2022-08-30T03:52:27.976Z,15.19
2022-08-30T03:53:27.958Z,15.26
2022-08-30T03:54:27.937Z,15.32
2022-08-30T03:55:27.922Z,15.33
2022-08-30T03:56:27.901Z,15.23
2022-08-30T03:57:27.884Z,15.26
2022-08-30T03:58:27.861Z,15.27
2022-08-30T03:59:27.846Z,15.29
2022-08-30T04:00:27.829Z,15.30
2022-08-30T04:01:27.919Z,15.29
2022-08-30T04:02:27.833Z,15.27
2022-08-30T04:03:27.772Z,15.30
2022-08-30T04:04:27.752Z,15.23
2022-08-30T04:05:27.736Z,15.29
2022-08-30T04:06:27.714Z,15.17
2022-08-30T04:07:27.699Z,15.19
2022-08-30T04:08:27.676Z,15.14
2022-08-30T04:09:27.661Z,15.23
2022-08-30T04:10:27.643Z,15.15
2022-08-30T04:11:27.624Z,15.17
2022-08-30T04:12:27.604Z,15.15
2022-08-30T04:13:27.586Z,15.19
2022-08-30T04:14:27.569Z,15.19
2022-08-30T04:15:27.550Z,15.19
2022-08-30T04:16:27.584Z,15.19
2022-08-30T04:17:27.510Z,15.23
2022-08-30T04:18:27.493Z,15.18
2022-08-30T04:19:27.476Z,15.12
2022-08-30T04:20:27.464Z,15.11
2022-08-30T04:21:27.436Z,15.08
2022-08-30T04:22:27.416Z,15.02
2022-08-30T04:23:27.400Z,15.05
2022-08-30T04:24:27.377Z,14.99
2022-08-30T04:25:27.362Z,15.05
2022-08-30T04:26:29.329Z,15.08
2022-08-30T04:27:27.325Z,15.07
2022-08-30T04:28:27.305Z,15.10
2022-08-30T04:29:27.286Z,15.02
2022-08-30T04:30:27.266Z,15.05
2022-08-30T04:31:27.339Z,15.04
2022-08-30T04:32:27.234Z,15.14
2022-08-30T04:33:27.213Z,15.04
2022-08-30T04:34:27.192Z,15.05
2022-08-30T04:35:27.179Z,15.08
2022-08-30T04:36:27.154Z,15.11
2022-08-30T04:37:27.152Z,15.18
2022-08-30T04:39:44.616Z,15.11
2022-08-30T04:40:44.681Z,15.14
2022-08-30T04:41:44.587Z,15.05
2022-08-30T04:42:44.563Z,15.12
2022-08-30T04:44:42.009Z,15.11
2022-08-30T04:45:42.122Z,15.14
2022-08-30T04:46:44.381Z,15.10
2022-08-30T04:47:41.953Z,15.15
2022-08-30T04:48:41.935Z,15.14
2022-08-30T04:49:41.918Z,15.17
2022-08-30T04:50:41.895Z,15.19
2022-08-30T04:51:41.877Z,15.19
2022-08-30T04:52:41.860Z,15.14
2022-08-30T04:53:41.840Z,15.15
2022-08-30T04:54:41.822Z,15.17
2022-08-30T04:55:41.803Z,15.17
2022-08-30T04:56:41.781Z,15.12
2022-08-30T04:57:41.766Z,15.18
2022-08-30T04:58:41.746Z,15.05
2022-08-30T04:59:41.729Z,15.15
2022-08-30T05:00:41.751Z,15.07
2022-08-30T05:01:45.527Z,15.17
2022-08-30T05:02:41.732Z,15.10
2022-08-30T05:03:41.653Z,15.10
2022-08-30T05:04:41.636Z,15.17
2022-08-30T05:05:41.618Z,15.19
2022-08-30T05:06:41.595Z,15.12
2022-08-30T05:07:41.580Z,15.19
2022-08-30T05:08:41.566Z,15.26
2022-08-30T05:09:41.542Z,15.25
2022-08-30T05:10:41.522Z,15.27
2022-08-30T05:11:41.511Z,15.25
2022-08-30T05:12:41.490Z,15.32
2022-08-30T05:13:41.467Z,15.36
2022-08-30T05:14:41.473Z,15.27
2022-08-30T05:15:41.432Z,15.33
2022-08-30T05:16:41.590Z,15.37
2022-08-30T05:17:41.392Z,15.43
2022-08-30T05:18:41.374Z,15.43
2022-08-30T05:19:41.356Z,15.44
2022-08-30T05:20:41.334Z,15.35
2022-08-30T05:21:41.433Z,15.44
2022-08-30T05:22:41.298Z,15.54
2022-08-30T05:23:41.282Z,15.44
2022-08-30T05:24:41.261Z,15.45
2022-08-30T05:25:41.243Z,15.52
2022-08-30T05:26:41.293Z,15.52
2022-08-30T05:27:41.242Z,15.54
2022-08-30T05:28:41.184Z,15.55
2022-08-30T05:29:41.166Z,15.57
2022-08-30T05:30:41.147Z,15.57
2022-08-30T05:35:01.912Z,15.55
2022-08-30T05:36:01.897Z,15.62
2022-08-30T05:37:02.054Z,15.60
2022-08-30T05:38:01.863Z,15.55
2022-08-30T05:39:01.834Z,15.55
2022-08-30T05:40:01.834Z,15.55
2022-08-30T05:41:06.420Z,15.63
2022-08-30T05:42:01.780Z,15.63
2022-08-30T05:43:01.759Z,15.62
2022-08-30T05:44:01.745Z,15.66
2022-08-30T05:45:01.739Z,15.78
2022-08-30T05:46:01.705Z,15.78
2022-08-30T05:47:01.688Z,15.70
2022-08-30T05:48:01.668Z,15.69
2022-08-30T05:49:01.646Z,15.78
2022-08-30T05:50:01.635Z,15.83
2022-08-30T05:51:01.610Z,15.83
2022-08-30T05:52:01.595Z,15.87
2022-08-30T05:53:01.573Z,15.80
2022-08-30T05:54:01.556Z,15.81
2022-08-30T05:55:01.535Z,15.81
2022-08-30T05:56:01.529Z,15.80
2022-08-30T05:57:01.500Z,15.81
2022-08-30T05:58:01.483Z,15.84
2022-08-30T05:59:01.461Z,15.83
2022-08-30T06:00:01.443Z,15.84
2022-08-30T06:01:01.424Z,15.91
2022-08-30T06:02:01.458Z,15.88
2022-08-30T06:03:01.467Z,15.96
2022-08-30T06:04:03.950Z,15.98
2022-08-30T06:05:01.349Z,15.94
2022-08-30T06:06:01.331Z,16.06
2022-08-30T06:07:01.311Z,16.06
2022-08-30T06:08:01.293Z,16.02
2022-08-30T06:09:01.271Z,16.02
2022-08-30T06:10:01.254Z,15.99
2022-08-30T06:11:01.234Z,16.00
2022-08-30T06:12:01.218Z,16.05
2022-08-30T06:13:01.201Z,16.13
2022-08-30T06:14:01.183Z,16.09
2022-08-30T06:15:01.159Z,16.22
2022-08-30T06:16:01.191Z,16.13
2022-08-30T06:17:01.203Z,16.12
2022-08-30T06:18:01.109Z,16.29
2022-08-30T06:19:01.085Z,16.24
2022-08-30T06:20:01.138Z,16.29
2022-08-30T06:21:01.049Z,16.34
2022-08-30T06:22:01.031Z,16.31
2022-08-30T06:23:01.015Z,16.36
2022-08-30T06:24:00.992Z,16.36
2022-08-30T06:25:00.976Z,16.32
2022-08-30T06:26:00.959Z,16.34
2022-08-30T06:27:00.938Z,16.43
2022-08-30T06:28:00.918Z,16.39
2022-08-30T06:29:00.899Z,16.37
2022-08-30T06:30:00.883Z,16.49
2022-08-30T06:31:00.925Z,16.46
2022-08-30T06:32:00.842Z,16.51
2022-08-30T06:33:00.825Z,16.50
2022-08-30T06:34:00.806Z,16.43
2022-08-30T06:35:00.787Z,16.50
2022-08-30T06:36:04.279Z,16.62
2022-08-30T06:37:00.752Z,16.59
2022-08-30T06:38:00.733Z,16.54
2022-08-30T06:39:00.713Z,16.62
2022-08-30T06:40:00.742Z,16.69
2022-08-30T06:41:00.673Z,16.68
2022-08-30T06:42:00.657Z,16.68
2022-08-30T06:43:00.638Z,16.73
2022-08-30T06:44:00.619Z,16.69
2022-08-30T06:45:00.599Z,16.74
2022-08-30T06:46:00.584Z,16.83
2022-08-30T06:47:00.598Z,16.77
2022-08-30T06:48:00.551Z,16.76
2022-08-30T06:49:00.560Z,16.83
2022-08-30T06:50:00.507Z,16.82
2022-08-30T06:51:00.489Z,16.82
2022-08-30T06:52:00.472Z,16.91
2022-08-30T06:53:00.449Z,16.86
2022-08-30T06:54:00.434Z,16.91
2022-08-30T06:55:00.418Z,16.84
2022-08-30T06:56:00.399Z,16.95
2022-08-30T06:57:00.387Z,16.99
2022-08-30T06:58:00.359Z,16.99
2022-08-30T06:59:00.340Z,16.98
2022-08-30T07:00:00.325Z,17.05
2022-08-30T07:01:00.303Z,17.01
2022-08-30T07:02:00.359Z,17.07
2022-08-30T07:03:00.300Z,17.13
2022-08-30T07:04:00.247Z,17.16
2022-08-30T07:05:00.231Z,17.22
2022-08-30T07:06:00.211Z,17.23
2022-08-30T07:07:00.191Z,17.32
2022-08-30T07:08:00.174Z,17.28
2022-08-30T07:09:00.154Z,17.28
2022-08-30T07:10:00.140Z,17.37
2022-08-30T07:11:00.117Z,17.46
2022-08-30T07:12:00.107Z,17.39
2022-08-30T07:13:00.083Z,17.49
2022-08-30T07:14:00.072Z,17.54
2022-08-30T07:15:00.046Z,17.54
2022-08-30T07:16:00.082Z,17.44
2022-08-30T07:17:00.006Z,17.54
2022-08-30T07:17:59.991Z,17.59
2022-08-30T07:18:59.969Z,17.59
2022-08-30T07:19:59.956Z,17.56
2022-08-30T07:20:59.934Z,17.65
2022-08-30T07:21:59.919Z,17.68
2022-08-30T07:22:59.897Z,17.82
2022-08-30T07:23:59.882Z,17.76
2022-08-30T07:24:59.859Z,17.82
2022-08-30T07:25:59.847Z,17.79
2022-08-30T07:26:59.827Z,17.84
2022-08-30T07:27:59.810Z,17.97
2022-08-30T07:28:59.809Z,17.95
2022-08-30T07:29:59.773Z,17.94
2022-08-30T07:30:59.811Z,18.05
2022-08-30T07:31:59.735Z,18.00
2022-08-30T07:32:59.714Z,18.03
2022-08-30T07:33:59.698Z,18.08
2022-08-30T07:34:59.679Z,18.08
2022-08-30T07:35:59.727Z,18.13
2022-08-30T07:36:59.642Z,18.16
2022-08-30T07:37:59.624Z,18.12
2022-08-30T07:38:59.604Z,18.18
2022-08-30T07:39:59.624Z,18.24
2022-08-30T07:40:59.567Z,18.28
2022-08-30T07:41:59.550Z,18.24
2022-08-30T07:42:59.532Z,18.41
2022-08-30T07:43:59.514Z,18.39
2022-08-30T07:44:59.495Z,18.42
2022-08-30T07:45:59.522Z,18.52
2022-08-30T07:46:59.458Z,18.52
2022-08-30T07:47:59.441Z,18.58
2022-08-30T07:48:59.422Z,18.46
2022-08-30T07:49:59.409Z,18.57
2022-08-30T07:51:04.571Z,18.57
2022-08-30T07:51:59.367Z,18.64
2022-08-30T07:52:59.350Z,18.64
2022-08-30T07:53:59.334Z,18.70
2022-08-30T07:54:59.314Z,18.63
2022-08-30T07:55:59.295Z,18.66
2022-08-30T07:56:59.278Z,18.71
2022-08-30T07:57:59.360Z,18.68
2022-08-30T07:58:59.241Z,18.70
2022-08-30T07:59:59.225Z,18.78
2022-08-30T08:00:59.205Z,18.82
2022-08-30T08:01:59.237Z,18.81
2022-08-30T08:02:59.292Z,18.83
2022-08-30T08:03:59.152Z,18.78
2022-08-30T08:04:59.132Z,18.81
2022-08-30T08:05:59.116Z,18.88
2022-08-30T08:06:59.097Z,18.85
2022-08-30T08:07:59.078Z,18.92
2022-08-30T08:08:59.058Z,18.89
2022-08-30T08:09:59.046Z,18.91
2022-08-30T08:10:59.023Z,19.00
2022-08-30T08:11:59.006Z,19.01
2022-08-30T08:12:58.985Z,19.01
2022-08-30T08:13:58.971Z,19.09
2022-08-30T08:14:58.951Z,19.11
2022-08-30T08:15:58.965Z,19.19
2022-08-30T08:16:58.915Z,19.16
2022-08-30T08:17:58.898Z,19.17
2022-08-30T08:18:58.879Z,19.17
2022-08-30T08:19:58.862Z,19.22
2022-08-30T08:20:58.850Z,19.26
2022-08-30T08:22:19.451Z,19.23
2022-08-30T08:22:58.812Z,19.26
2022-08-30T08:23:58.797Z,19.38
2022-08-30T08:24:58.770Z,19.35
2022-08-30T08:25:58.757Z,19.30
2022-08-30T08:26:58.736Z,19.34
2022-08-30T08:27:58.720Z,19.34
2022-08-30T08:28:58.700Z,19.34
2022-08-30T08:29:58.683Z,19.39
2022-08-30T08:30:58.706Z,19.37
2022-08-30T08:31:58.649Z,19.41
2022-08-30T08:32:58.628Z,19.38
2022-08-30T08:33:58.618Z,19.37
2022-08-30T08:34:58.594Z,19.42
2022-08-30T08:35:58.578Z,19.47
2022-08-30T08:36:58.558Z,19.42
2022-08-30T08:37:58.542Z,19.56
2022-08-30T08:38:58.530Z,19.52
2022-08-30T08:39:58.595Z,19.53
2022-08-30T08:40:58.486Z,19.63
2022-08-30T08:41:58.474Z,19.63
2022-08-30T08:42:58.461Z,19.57
2022-08-30T08:43:58.434Z,19.71
2022-08-30T08:44:58.416Z,19.77
2022-08-30T08:45:58.429Z,19.64
2022-08-30T08:46:58.389Z,19.74
2022-08-30T08:47:58.364Z,19.81
2022-08-30T08:49:00.745Z,19.79
2022-08-30T08:49:58.330Z,19.81
2022-08-30T08:51:00.693Z,19.85
2022-08-30T08:51:58.294Z,19.90
2022-08-30T08:52:58.278Z,19.79
2022-08-30T08:53:58.258Z,19.84
2022-08-30T08:54:59.168Z,19.90
2022-08-30T08:55:58.231Z,19.79
2022-08-30T08:56:58.279Z,19.84
2022-08-30T08:57:58.186Z,19.89
2022-08-30T08:58:58.169Z,19.90
2022-08-30T08:59:58.152Z,19.93
2022-08-30T09:00:58.141Z,19.99
2022-08-30T09:01:58.355Z,20.00
2022-08-30T09:02:58.101Z,20.11
2022-08-30T09:03:58.084Z,20.08
2022-08-30T09:04:58.165Z,20.07
2022-08-30T09:05:58.048Z,20.07
2022-08-30T09:06:58.026Z,20.11
2022-08-30T09:07:58.019Z,20.12
2022-08-30T09:08:57.993Z,20.21
2022-08-30T09:09:57.977Z,20.14
2022-08-30T09:10:57.960Z,20.14
2022-08-30T09:11:57.941Z,20.11
2022-08-30T09:13:00.049Z,20.21
2022-08-30T09:13:57.907Z,20.19
2022-08-30T09:14:57.888Z,20.19
2022-08-30T09:15:59.546Z,20.18
2022-08-30T09:16:57.855Z,20.22
2022-08-30T09:17:57.838Z,20.30
2022-08-30T09:18:57.820Z,20.21
2022-08-30T09:19:57.803Z,20.24
2022-08-30T09:20:57.783Z,20.30
2022-08-30T09:21:57.768Z,20.30
2022-08-30T09:22:57.747Z,20.32
2022-08-30T09:23:57.735Z,20.34
2022-08-30T09:24:57.713Z,20.33
2022-08-30T09:25:57.699Z,20.39
2022-08-30T09:26:57.678Z,20.36
2022-08-30T09:27:57.668Z,20.39
2022-08-30T09:28:57.646Z,20.30
2022-08-30T09:29:57.629Z,20.44
2022-08-30T09:30:57.633Z,20.58
2022-08-30T09:32:25.073Z,20.42
2022-08-30T09:32:57.626Z,20.49
2022-08-30T09:33:57.561Z,20.48
2022-08-30T09:34:57.544Z,20.58
2022-08-30T09:35:57.524Z,20.55
2022-08-30T09:36:57.508Z,20.53
2022-08-30T09:37:57.491Z,20.58
2022-08-30T09:38:57.479Z,20.55
2022-08-30T09:39:57.501Z,20.58
2022-08-30T09:40:57.438Z,20.67
2022-08-30T09:41:57.425Z,20.83
2022-08-30T09:42:57.403Z,20.77
2022-08-30T09:43:57.388Z,20.78
2022-08-30T09:44:57.374Z,20.83
2022-08-30T09:45:57.438Z,20.88
2022-08-30T09:46:57.669Z,20.95
2022-08-30T09:47:57.321Z,21.11
2022-08-30T09:48:57.302Z,21.25
2022-08-30T09:49:57.284Z,21.35
2022-08-30T09:50:57.268Z,21.40
2022-08-30T09:51:57.248Z,21.56
2022-08-30T09:52:57.230Z,21.62
2022-08-30T09:54:57.200Z,21.62
2022-08-30T09:55:57.189Z,22.03
2022-08-30T09:56:57.175Z,22.08
2022-08-30T09:57:57.145Z,22.26
2022-08-30T09:58:57.132Z,22.23
2022-08-30T09:59:57.115Z,22.22
2022-08-30T10:00:57.158Z,22.34
2022-08-30T10:01:57.078Z,22.44
2022-08-30T10:02:57.065Z,22.68
2022-08-30T10:03:57.060Z,22.92
2022-08-30T10:04:57.040Z,23.08
2022-08-30T10:05:57.743Z,23.28
2022-08-30T10:06:57.025Z,23.55
2022-08-30T10:07:56.981Z,23.63
2022-08-30T10:08:56.966Z,23.82
2022-08-30T10:09:56.947Z,23.95
2022-08-30T10:10:56.936Z,23.71
2022-08-30T10:11:56.916Z,23.64
2022-08-30T10:12:56.901Z,23.45
2022-08-30T10:13:56.890Z,23.34
2022-08-30T10:14:56.869Z,23.16
2022-08-30T10:15:56.859Z,23.02
2022-08-30T10:16:56.838Z,23.06
2022-08-30T10:17:56.821Z,23.14
2022-08-30T10:18:56.823Z,23.34
2022-08-30T10:19:56.789Z,23.66
2022-08-30T10:20:56.776Z,23.71
2022-08-30T10:21:56.757Z,23.64
2022-08-30T10:22:58.759Z,23.42
2022-08-30T10:23:56.728Z,23.29
2022-08-30T10:24:56.715Z,23.36
2022-08-30T10:25:56.695Z,23.34
2022-08-30T10:26:56.682Z,23.40
2022-08-30T10:27:56.664Z,23.44
2022-08-30T10:28:56.653Z,23.69
2022-08-30T10:29:56.637Z,23.63
2022-08-30T10:30:56.622Z,23.69
2022-08-30T10:31:56.604Z,23.64
2022-08-30T10:32:56.591Z,23.45
2022-08-30T10:33:56.573Z,23.55
2022-08-30T10:34:56.560Z,23.64
2022-08-30T10:35:56.544Z,23.67
2022-08-30T10:36:56.530Z,23.62
2022-08-30T10:37:56.513Z,23.55
2022-08-30T10:38:56.537Z,23.39
2022-08-30T10:39:56.532Z,23.25
2022-08-30T10:40:56.469Z,23.14
2022-08-30T10:41:56.454Z,23.11
2022-08-30T10:42:56.441Z,22.96
2022-08-30T10:43:56.424Z,23.01
2022-08-30T10:44:56.416Z,22.95
2022-08-30T10:45:56.392Z,23.07
2022-08-30T10:46:56.378Z,22.93
2022-08-30T10:47:56.364Z,23.10
2022-08-30T10:48:56.348Z,23.06
2022-08-30T10:49:56.329Z,23.13
2022-08-30T10:50:56.330Z,23.06
2022-08-30T10:51:58.848Z,23.04
2022-08-30T10:52:56.288Z,22.96
2022-08-30T10:53:56.274Z,22.89
2022-08-30T10:54:56.257Z,23.02
2022-08-30T10:55:56.240Z,23.26
2022-08-30T10:56:56.227Z,23.40
2022-08-30T10:57:56.209Z,23.52
2022-08-30T10:58:56.196Z,23.66
2022-08-30T10:59:56.182Z,23.64
2022-08-30T11:00:56.233Z,23.69
2022-08-30T11:01:56.154Z,23.48
2022-08-30T11:02:56.135Z,23.49
2022-08-30T11:03:56.120Z,23.47
2022-08-30T11:04:56.108Z,23.36
2022-08-30T11:05:56.088Z,23.21
2022-08-30T11:06:56.077Z,23.20
2022-08-30T11:07:56.058Z,23.17
2022-08-30T11:08:56.047Z,23.08
2022-08-30T11:09:56.027Z,22.98
2022-08-30T11:10:56.015Z,22.91
2022-08-30T11:11:56.001Z,22.83
2022-08-30T11:12:55.987Z,22.84
2022-08-30T11:13:57.493Z,22.88
2022-08-30T11:14:55.955Z,22.89
2022-08-30T11:15:55.957Z,22.78
2022-08-30T11:16:55.922Z,22.70
2022-08-30T11:17:55.911Z,22.76
2022-08-30T11:18:55.894Z,22.63
2022-08-30T11:19:55.877Z,22.65
2022-08-30T11:20:55.862Z,22.62
2022-08-30T11:21:55.847Z,22.62
2022-08-30T11:22:55.836Z,22.67
2022-08-30T11:23:55.815Z,22.67
2022-08-30T11:24:55.800Z,22.65
2022-08-30T11:25:57.892Z,22.67
2022-08-30T11:26:55.769Z,22.67
2022-08-30T11:27:55.754Z,22.67
2022-08-30T11:28:55.742Z,22.67
2022-08-30T11:29:55.732Z,22.73
2022-08-30T11:30:55.747Z,22.84
2022-08-30T11:31:55.721Z,22.93
2022-08-30T11:32:55.746Z,22.89
2022-08-30T11:33:55.781Z,22.93
2022-08-30T11:34:55.695Z,22.92
2022-08-30T11:35:55.661Z,22.99
2022-08-30T11:36:55.676Z,23.02
2022-08-30T11:37:55.626Z,23.10
2022-08-30T11:38:55.641Z,23.04
2022-08-30T11:39:55.629Z,23.02
2022-08-30T11:40:55.602Z,23.10
2022-08-30T11:41:55.605Z,23.13
2022-08-30T11:42:55.594Z,23.10
2022-08-30T11:43:55.554Z,23.10
2022-08-30T11:44:55.548Z,23.11
2022-08-30T11:45:55.645Z,23.17
2022-08-30T11:46:55.506Z,23.21
2022-08-30T11:47:55.540Z,23.16
2022-08-30T11:48:55.908Z,23.13
2022-08-30T11:49:55.411Z,23.13
2022-08-30T11:50:55.412Z,23.18
2022-08-30T11:52:23.636Z,23.14
2022-08-30T11:52:55.364Z,23.16
2022-08-30T11:53:55.382Z,23.08
2022-08-30T11:54:55.347Z,22.93
2022-08-30T11:55:55.333Z,22.81
2022-08-30T11:56:55.338Z,22.80
2022-08-30T11:57:55.294Z,22.80
2022-08-30T11:58:55.380Z,22.77
2022-08-30T11:59:55.284Z,22.74
2022-08-30T12:00:55.290Z,22.89
2022-08-30T12:01:55.466Z,22.89
2022-08-30T12:02:55.442Z,22.88
2022-08-30T12:03:55.252Z,22.83
2022-08-30T12:04:55.287Z,22.88
2022-08-30T12:05:55.247Z,22.92
2022-08-30T12:06:55.193Z,22.88
2022-08-30T12:07:55.176Z,22.95
2022-08-30T12:08:59.999Z,23.07
2022-08-30T12:09:55.154Z,23.02
2022-08-30T12:10:56.272Z,23.02
2022-08-30T12:11:55.106Z,23.01
2022-08-30T12:12:55.078Z,23.16
2022-08-30T12:13:55.076Z,23.13
2022-08-30T12:14:55.131Z,23.13
2022-08-30T12:15:55.060Z,23.16
2022-08-30T12:16:55.058Z,23.20
2022-08-30T12:17:55.000Z,23.21
2022-08-30T12:18:55.013Z,23.29
2022-08-30T12:19:54.967Z,23.34
2022-08-30T12:20:54.987Z,23.39
2022-08-30T12:21:54.978Z,23.48
2022-08-30T12:22:54.952Z,23.34
2022-08-30T12:23:54.904Z,23.49
2022-08-30T12:24:54.914Z,23.44
2022-08-30T12:25:54.887Z,23.39
2022-08-30T12:26:54.883Z,23.33
2022-08-30T12:27:54.846Z,23.40
2022-08-30T12:28:54.846Z,23.48
2022-08-30T12:29:54.835Z,23.54
2022-08-30T12:30:54.883Z,23.44
2022-08-30T12:31:54.914Z,23.44
2022-08-30T12:32:54.864Z,23.47
2022-08-30T12:33:54.760Z,23.47
2022-08-30T12:34:54.755Z,23.52
2022-08-30T12:35:54.732Z,23.44
2022-08-30T12:36:54.721Z,23.55
2022-08-30T12:37:54.690Z,23.54
2022-08-30T12:38:54.697Z,23.67
2022-08-30T12:39:54.801Z,23.58
2022-08-30T12:40:54.655Z,23.69
2022-08-30T12:41:54.640Z,23.67
2022-08-30T12:42:54.627Z,23.74
2022-08-30T12:43:54.661Z,23.76
2022-08-30T12:44:54.663Z,23.73
2022-08-30T12:45:54.624Z,23.76
2022-08-30T12:46:58.991Z,23.79
2022-08-30T12:47:54.559Z,23.79
2022-08-30T12:48:54.514Z,23.71
2022-08-30T12:49:54.543Z,23.64
2022-08-30T12:50:54.526Z,23.64
2022-08-30T12:51:54.501Z,23.63
2022-08-30T12:52:54.459Z,23.59
2022-08-30T12:53:54.561Z,23.66
2022-08-30T12:54:54.475Z,23.67
2022-08-30T12:55:54.449Z,23.74
2022-08-30T12:56:54.448Z,23.79
2022-08-30T12:57:54.354Z,23.79
2022-08-30T12:58:54.343Z,23.92